女満別空港の過去48時間の天気

女満別空港 (Memanbetsu)

現在時刻: 9/17 00:14 JST (9/16 15:14 UTC) 以下の時間は現地時間です。

過去48時間のMETAR気象情報
時間 風向 風速(m/s) 視程 気温(℃) 湿度(%) 気圧(hPa) 天気現象
16 20:00 不定 1 7000m 19 88 1004 弱いしゅう雨
16 19:40 不定 1 5000m 19 88 1005 しゅう雨 もや
16 19:00 不定 1 10km以上 19 88 1004
16 18:00 南南東 2 10km以上 19 83 1005
16 17:00 南南東 3 10km以上 20 83 1005
16 16:00 南東 2 10km以上 21 78 1006
16 15:00 南南東 3 10km以上 21 78 1006
16 14:00 東南東 3 10km以上 21 78 1007
16 13:00 南南東 4 10km以上 20 83 1007
16 12:00 南南東 3 10km以上 21 78 1008
16 11:00 不定 1 10km以上 20 83 1009
16 10:00 不定 1 10km以上 18 88 1010
16 09:00 南南東 2 10km以上 17 94 1011
16 08:05 不定 1 5000m 15 100 1011 もや
16 08:00 不定 1 4000m 15 100 1011 もや
16 07:45 東北東 2 2000m 15 94 1011 散在した霧 もや
15 20:00 不定 1 10km以上 18 88 1013
15 19:00 不定 1 10km以上 18 88 1013
15 18:00 3 10km以上 18 88 1013
15 17:00 2 10km以上 19 83 1012
15 16:00 東北東 3 10km以上 20 78 1012
15 15:00 東北東 3 10km以上 20 78 1011
15 14:00 東北東 3 10km以上 20 78 1011
15 13:00 2 10km以上 21 69 1011
15 12:00 2 10km以上 20 78 1012
15 11:00 北西 2 10km以上 19 83 1012
15 10:00 不定 1 10km以上 19 88 1012 弱いしゅう雨
15 09:00 南南東 3 8000m 18 88 1012 弱いしゅう雨
15 08:09 北東 2 5000m 17 94 1012 弱いしゅう雨 もや
15 08:00 北北西 2 3200m 17 94 1012 弱いしゅう雨 もや
15 07:45 不定 1 2300m 17 94 1012 しゅう雨 もや
15 07:36 西南西 1 2300m 17 94 1012 しゅう雨 もや
RJCM 161100Z VRB02KT 7000 -SHRA FEW009 SCT030 BKN040 19/17 Q1004
RJCM 161040Z VRB01KT 5000 SHRA BR FEW010 SCT030 BKN040 19/17 Q1005 RMK 1ST010 3CU030 6CU040 A2968
RJCM 161000Z VRB02KT 9999 FEW010 SCT050 BKN070 19/17 Q1004
RJCM 160900Z 15004KT 9999 FEW010 SCT070 BKN/// 19/16 Q1005
RJCM 160800Z 16006KT 9999 FEW010 BKN/// 20/17 Q1005
RJCM 160700Z 14003KT 090V180 9999 FEW010 SCT035 BKN070 21/17 Q1006
RJCM 160600Z 15006KT 9999 FEW010 BKN030 21/17 Q1006
RJCM 160500Z 12005KT 090V160 9999 FEW010 BKN025 BKN080 21/17 Q1007
RJCM 160400Z 15007KT 9999 FEW010 SCT025 BKN030 20/17 Q1007
RJCM 160300Z 15006KT 9999 FEW010 SCT015 BKN035 21/17 Q1008
RJCM 160200Z VRB02KT 9999 FEW010 SCT060 BKN070 20/17 Q1009
RJCM 160100Z VRB01KT 9999 FEW010 SCT040 BKN060 18/16 Q1010
RJCM 160000Z 15003KT 100V190 9999 FEW002 SCT020 BKN060 17/16 Q1011
RJCM 152305Z VRB02KT 5000 BR FEW001 SCT002 BKN070 15/15 Q1011 RMK 1ST001 3ST002 7AC070 A2986
RJCM 152300Z VRB02KT 4000 BR FEW001 BKN002 BKN070 15/15 Q1011
RJCM 152245Z 07004KT 2000 R36/P1800N BCFG BR SCT001 BKN002 15/14 Q1011 RMK 3ST001 7ST002 A2986
RJCM 151100Z VRB01KT 9999 FEW010 BKN025 18/16 Q1013
RJCM 151000Z VRB02KT 9999 FEW010 BKN025 18/16 Q1013
RJCM 150900Z 08005KT 9999 FEW010 SCT020 BKN025 18/16 Q1013
RJCM 150800Z 10004KT 9999 FEW010 SCT020 BKN025 19/16 Q1012
RJCM 150700Z 06005KT 9999 FEW010 SCT015 BKN020 20/16 Q1012
RJCM 150600Z 07005KT 9999 FEW010 SCT020 BKN100 20/16 Q1011
RJCM 150500Z 06006KT 9999 FEW010 SCT015 BKN020 20/16 Q1011
RJCM 150400Z 01003KT 270V090 9999 FEW010 SCT015 BKN020 21/15 Q1011
RJCM 150300Z 35003KT 290V030 9999 FEW007 SCT015 BKN090 20/16 Q1012
RJCM 150200Z 31004KT 280V350 9999 FEW006 SCT010 BKN015 19/16 Q1012
RJCM 150100Z VRB02KT 9999 -SHRA FEW005 SCT010 BKN015 19/17 Q1012
RJCM 150000Z 15005KT 8000 -SHRA FEW002 SCT005 BKN080 18/16 Q1012
RJCM 142309Z 05003KT 340V110 5000 -SHRA BR FEW002 SCT005 BKN010 17/16 Q1012 RMK 1ST002 3ST005 5ST010 A2990
RJCM 142300Z 34003KT 290V010 3200 -SHRA BR FEW002 SCT005 BKN010 17/16 Q1012
RJCM 142245Z VRB02KT 2300 R36/1600VP1800N SHRA BR FEW003 SCT005 BKN010 17/16 Q1012 RMK 1ST003 4ST005 6ST010 A2990
RJCM 142236Z 25002KT 2300 R18/1300VP1800D SHRA BR FEW003 SCT005 BKN010 17/16 Q1012 RMK 1ST003 4ST005 6ST010 A2990